Kawasaki, Japan
Current Conditions -  °F | °C
As of 5:00 AM on Saturday 20 Dec 2014 (Local Time) from RJTT Reporting Station
Broken Clouds Broken Clouds  
Wind Chill: 39°   Ceiling: 15000
Heat Index: 43°   Visibility: 6mi
Dew Point: 27°   Wind: 7mph
Humidity: 53%   Direction: 10°N
Pressure: 30.27"   Gusts: NA
Location:  35.53°N, 139.7°E
Report Text: RJTT 192000Z 01006KT 330V030 9999 FEW040 SCT050 BKN150 06/M03 Q1025 NOSIG
Loading
Personal Weather Stations






























Interactive Weather Map New forecast layout! Learn more

10-Day Weather Forecast

Advertisements
Track Severe Weather on mobile